Time;durP1;ratioP1;P1;durP2;ratioP2;P2;SDS_P1;SDS_P2;PMS_P1;PMS_P2;Temp;Humidity;BMP_temperature;BMP_pressure;BME280_temperature;BME280_humidity;BME280_pressure;Samples;Min_cycle;Max_cycle;Signal;HPM_P1;HPM_P2
2021/03/16 00:01:21;;;;;;;4.15;1.60;;;10.00;74.60;;;;;;4982165;28;20050;-84
2021/03/16 00:03:50;;;;;;;6.63;2.00;;;10.00;74.60;;;;;;5005923;28;20116;-83
2021/03/16 00:06:38;;;;;;;4.07;1.60;;;10.00;74.70;;;;;;4976572;28;20058;-85
2021/03/16 00:09:04;;;;;;;2.58;1.20;;;10.00;74.60;;;;;;4961444;28;20034;-84
2021/03/16 00:11:30;;;;;;;4.30;1.95;;;10.00;74.60;;;;;;4966597;28;20038;-84
2021/03/16 00:13:56;;;;;;;3.03;1.90;;;10.00;74.70;;;;;;4959092;28;20035;-85
2021/03/16 00:16:23;;;;;;;2.40;1.30;;;10.00;74.70;;;;;;4991711;28;20027;-83
2021/03/16 00:18:49;;;;;;;4.18;1.60;;;10.00;74.70;;;;;;4973022;28;20031;-85
2021/03/16 00:21:14;;;;;;;5.57;1.73;;;9.90;74.60;;;;;;4971602;28;20029;-83
2021/03/16 00:23:40;;;;;;;2.97;1.50;;;9.90;74.60;;;;;;4984850;28;20509;-84
2021/03/16 00:26:06;;;;;;;4.80;1.70;;;9.90;74.60;;;;;;4947746;28;20483;-84
2021/03/16 00:28:32;;;;;;;5.03;1.60;;;9.90;74.50;;;;;;4960007;28;20022;-84
2021/03/16 00:30:58;;;;;;;3.97;1.63;;;9.90;74.50;;;;;;4976313;28;20034;-85
2021/03/16 00:33:23;;;;;;;4.20;1.70;;;9.90;74.50;;;;;;4975356;28;20031;-84
2021/03/16 00:35:49;;;;;;;4.00;1.67;;;9.90;74.50;;;;;;4975874;28;20387;-85
2021/03/16 00:38:15;;;;;;;3.17;1.55;;;9.90;74.50;;;;;;4963047;28;20120;-83
2021/03/16 00:40:41;;;;;;;5.93;2.25;;;9.90;74.50;;;;;;4975926;28;20073;-84
2021/03/16 00:43:07;;;;;;;4.90;1.70;;;9.90;74.40;;;;;;4959758;28;20463;-85
2021/03/16 00:45:33;;;;;;;2.85;1.30;;;9.90;74.40;;;;;;4975954;28;20491;-85
2021/03/16 00:47:58;;;;;;;3.88;1.70;;;9.90;75.10;;;;;;4976107;28;20040;-84
2021/03/16 00:50:25;;;;;;;3.60;1.60;;;9.80;74.40;;;;;;4966033;28;20505;-85
2021/03/16 00:52:50;;;;;;;2.45;1.20;;;9.90;74.40;;;;;;4975075;28;20114;-84
2021/03/16 00:55:17;;;;;;;4.07;1.42;;;9.80;74.40;;;;;;4931200;28;20125;-85
2021/03/16 00:57:43;;;;;;;3.80;1.80;;;9.80;74.40;;;;;;4975233;28;20069;-83
2021/03/16 01:00:09;;;;;;;5.47;1.40;;;9.80;74.40;;;;;;4991860;28;20038;-84
2021/03/16 01:02:35;;;;;;;4.10;1.63;;;9.80;74.40;;;;;;4964311;28;20073;-82
2021/03/16 01:05:01;;;;;;;3.33;1.48;;;9.80;74.40;;;;;;4944251;28;20089;-83
2021/03/16 01:07:27;;;;;;;4.05;1.50;;;9.80;74.40;;;;;;4993821;28;20470;-83
2021/03/16 01:09:53;;;;;;;3.22;1.50;;;9.80;74.40;;;;;;5002904;28;20108;-85
2021/03/16 01:12:19;;;;;;;2.88;1.38;;;9.80;74.40;;;;;;4983633;28;20100;-84
2021/03/16 01:14:45;;;;;;;3.28;1.33;;;9.80;74.40;;;;;;5002329;28;20482;-84
2021/03/16 01:17:10;;;;;;;3.35;1.55;;;9.80;74.40;;;;;;4991612;28;20386;-83
2021/03/16 01:19:36;;;;;;;3.22;1.30;;;9.80;74.40;;;;;;5005350;28;20382;-83
2021/03/16 01:22:02;;;;;;;4.05;1.55;;;9.70;74.40;;;;;;5002002;28;20121;-84
2021/03/16 01:24:28;;;;;;;3.35;1.60;;;9.70;74.40;;;;;;5012628;28;20542;-84
2021/03/16 01:26:54;;;;;;;2.33;1.38;;;9.70;74.40;;;;;;4994693;28;20036;-84
2021/03/16 01:29:19;;;;;;;3.75;1.50;;;9.70;74.40;;;;;;4997925;28;20070;-86
2021/03/16 01:31:45;;;;;;;2.60;1.40;;;9.70;74.40;;;;;;5006530;28;20061;-83
2021/03/16 01:34:11;;;;;;;4.82;1.65;;;9.70;74.40;;;;;;5001957;28;20401;-83
2021/03/16 01:36:37;;;;;;;4.38;1.65;;;9.70;74.30;;;;;;4994562;28;20549;-84
2021/03/16 01:39:04;;;;;;;3.55;1.50;;;9.70;74.40;;;;;;4989202;28;20399;-84
2021/03/16 01:41:30;;;;;;;3.60;1.48;;;9.70;74.40;;;;;;4993480;28;20045;-84
2021/03/16 01:43:56;;;;;;;3.35;1.73;;;9.60;74.30;;;;;;4982193;28;20046;-84
2021/03/16 01:46:22;;;;;;;2.03;1.10;;;9.70;74.40;;;;;;4995026;28;20084;-84
2021/03/16 01:48:49;;;;;;;2.75;1.33;;;9.70;74.30;;;;;;4981098;28;20475;-84
2021/03/16 01:51:16;;;;;;;2.70;1.23;;;9.60;74.30;;;;;;4998184;28;20076;-84
2021/03/16 01:53:42;;;;;;;2.22;1.17;;;9.60;74.30;;;;;;5003438;28;20022;-84
2021/03/16 01:56:10;;;;;;;3.40;1.40;;;9.60;74.20;;;;;;4981877;28;20371;-84
2021/03/16 01:58:56;;;;;;;2.53;1.50;;;9.60;74.30;;;;;;4999568;28;20509;-82
2021/03/16 02:01:41;;;;;;;4.88;1.85;;;9.60;74.20;;;;;;5026404;28;20076;-83
2021/03/16 02:04:25;;;;;;;2.85;1.38;;;9.60;74.30;;;;;;4991342;28;20052;-84
2021/03/16 02:07:18;;;;;;;3.17;1.17;;;9.60;74.30;;;;;;4997947;28;20504;-84
2021/03/16 02:10:12;;;;;;;3.28;1.40;;;9.60;74.30;;;;;;5012454;28;20100;-83
2021/03/16 02:13:15;;;;;;;3.78;1.58;;;9.60;74.30;;;;;;4980955;28;20041;-85
2021/03/16 02:16:07;;;;;;;4.60;1.50;;;9.50;74.40;;;;;;4983879;28;20107;-83
2021/03/16 02:18:58;;;;;;;3.90;1.45;;;9.50;74.30;;;;;;4980374;28;20129;-83
2021/03/16 02:21:43;;;;;;;2.85;1.40;;;9.50;74.30;;;;;;4995229;28;20045;-83
2021/03/16 02:24:38;;;;;;;2.20;1.20;;;9.50;74.30;;;;;;4980474;28;20154;-83
2021/03/16 02:27:27;;;;;;;3.00;1.33;;;9.50;74.50;;;;;;4994547;28;20512;-84
2021/03/16 02:30:13;;;;;;;2.35;1.30;;;9.50;74.30;;;;;;4984128;28;20029;-83
2021/03/16 02:32:59;;;;;;;4.20;1.40;;;9.50;74.40;;;;;;4997211;28;20091;-84
2021/03/16 02:35:47;;;;;;;3.88;1.52;;;9.50;74.40;;;;;;5005780;28;20513;-84
2021/03/16 02:38:36;;;;;;;2.90;1.40;;;9.40;75.00;;;;;;4993614;28;20506;-84
2021/03/16 02:41:23;;;;;;;3.20;1.40;;;9.50;74.40;;;;;;5008248;28;20084;-84
2021/03/16 02:44:08;;;;;;;3.05;1.40;;;9.50;74.40;;;;;;4988557;28;20080;-84
2021/03/16 02:46:56;;;;;;;2.90;1.50;;;9.40;74.30;;;;;;4984254;28;20116;-83
2021/03/16 02:49:43;;;;;;;3.22;1.30;;;9.40;74.40;;;;;;4999437;28;20056;-83
2021/03/16 02:52:28;;;;;;;2.10;1.45;;;9.40;74.40;;;;;;4987448;28;20081;-84
2021/03/16 02:55:14;;;;;;;2.63;1.13;;;9.40;74.40;;;;;;4985788;28;20533;-83
2021/03/16 02:57:59;;;;;;;2.17;1.23;;;9.40;74.40;;;;;;4993388;28;20048;-84
2021/03/16 03:00:45;;;;;;;2.33;1.27;;;9.40;74.40;;;;;;4999110;28;20394;-84
2021/03/16 03:03:30;;;;;;;3.33;1.35;;;9.40;74.40;;;;;;5001779;28;20044;-84
2021/03/16 03:06:19;;;;;;;2.88;1.20;;;9.40;74.40;;;;;;5000509;28;20064;-84
2021/03/16 03:09:05;;;;;;;2.67;1.25;;;9.40;74.50;;;;;;4987575;28;20148;-84
2021/03/16 03:11:49;;;;;;;2.05;1.25;;;9.40;74.40;;;;;;5001872;28;20053;-84
2021/03/16 03:14:35;;;;;;;3.67;1.60;;;9.40;74.40;;;;;;4971876;28;20671;-83
2021/03/16 03:17:20;;;;;;;2.40;1.35;;;9.40;74.40;;;;;;4996565;28;20044;-84
2021/03/16 03:20:09;;;;;;;2.05;1.00;;;9.40;74.40;;;;;;4978563;28;20081;-84
2021/03/16 03:23:01;;;;;;;3.03;1.35;;;9.30;74.40;;;;;;5002080;28;20060;-84
2021/03/16 03:25:52;;;;;;;3.08;1.30;;;9.30;74.40;;;;;;5000651;28;20040;-84
2021/03/16 03:28:38;;;;;;;2.42;1.25;;;9.30;74.40;;;;;;4996399;28;20182;-84
2021/03/16 03:31:22;;;;;;;2.38;1.15;;;9.30;74.40;;;;;;4999221;28;20049;-83
2021/03/16 03:34:08;;;;;;;1.63;1.10;;;9.40;75.10;;;;;;4985655;28;20059;-84
2021/03/16 03:36:57;;;;;;;2.30;1.20;;;9.30;74.40;;;;;;5001245;28;20441;-83
2021/03/16 03:39:42;;;;;;;2.63;1.20;;;9.30;74.50;;;;;;5006493;28;20092;-83
2021/03/16 03:42:28;;;;;;;1.95;1.17;;;9.30;74.50;;;;;;5012178;28;20037;-84
2021/03/16 03:45:13;;;;;;;2.85;1.20;;;9.30;74.50;;;;;;4998377;28;20041;-84
2021/03/16 03:48:02;;;;;;;1.42;1.10;;;9.30;74.50;;;;;;4987244;28;20041;-84
2021/03/16 03:50:50;;;;;;;2.28;1.33;;;9.30;74.50;;;;;;4984369;28;20397;-83
2021/03/16 03:53:35;;;;;;;1.45;1.17;;;9.30;74.50;;;;;;4998372;28;20053;-84
2021/03/16 03:56:20;;;;;;;1.55;1.10;;;9.30;74.60;;;;;;5003307;28;20053;-84
2021/03/16 03:59:05;;;;;;;1.90;1.35;;;9.30;74.50;;;;;;5009116;28;20067;-84
2021/03/16 04:01:51;;;;;;;2.95;1.13;;;9.30;74.50;;;;;;4998670;28;20101;-84
2021/03/16 04:04:37;;;;;;;2.40;1.33;;;9.30;74.50;;;;;;5012584;28;20052;-84
2021/03/16 04:07:22;;;;;;;2.00;1.20;;;9.30;74.60;;;;;;5004912;28;20113;-84
2021/03/16 04:10:08;;;;;;;2.20;1.33;;;9.30;75.20;;;;;;4988717;28;20152;-84
2021/03/16 04:12:53;;;;;;;1.40;1.10;;;9.30;74.50;;;;;;4999972;28;20161;-84
2021/03/16 04:15:38;;;;;;;1.95;1.27;;;9.30;74.50;;;;;;5011546;28;20137;-85
2021/03/16 04:18:23;;;;;;;2.13;1.20;;;9.30;74.60;;;;;;4975832;28;20113;-84
2021/03/16 04:21:07;;;;;;;2.58;1.60;;;9.20;74.50;;;;;;5012396;28;20048;-84
2021/03/16 04:23:52;;;;;;;2.40;1.23;;;9.30;74.50;;;;;;5003178;28;20076;-83
2021/03/16 04:26:36;;;;;;;1.83;1.23;;;9.30;74.60;;;;;;4986274;28;20049;-84
2021/03/16 04:29:21;;;;;;;2.03;1.30;;;9.20;74.50;;;;;;5006576;28;20065;-85
2021/03/16 04:32:05;;;;;;;3.20;1.23;;;9.20;74.60;;;;;;5024863;28;20456;-84
2021/03/16 04:34:49;;;;;;;1.53;1.23;;;9.30;74.60;;;;;;5021991;28;20068;-84
2021/03/16 04:37:34;;;;;;;1.80;1.17;;;9.20;74.50;;;;;;5012310;28;20553;-84
2021/03/16 04:40:20;;;;;;;3.33;1.17;;;9.20;74.50;;;;;;5012599;28;20069;-84
2021/03/16 04:43:04;;;;;;;;;;;9.20;74.50;;;;;;5001528;28;20324;-83
2021/03/16 04:45:48;;;;;;;1.48;1.23;;;9.20;74.50;;;;;;4991272;28;20028;-84
2021/03/16 04:48:33;;;;;;;1.33;0.93;;;9.20;74.40;;;;;;5004371;28;20106;-83
2021/03/16 04:51:17;;;;;;;2.20;1.20;;;9.20;74.50;;;;;;4999992;28;20045;-84
2021/03/16 04:54:01;;;;;;;3.45;1.25;;;9.20;74.60;;;;;;5004972;28;20041;-83
2021/03/16 04:56:46;;;;;;;2.57;1.27;;;9.20;74.70;;;;;;5004767;28;20085;-85
2021/03/16 04:59:30;;;;;;;2.27;1.30;;;9.20;74.60;;;;;;4972670;28;20049;-84
2021/03/16 05:02:16;;;;;;;2.28;1.23;;;9.20;74.70;;;;;;4998822;28;20045;-84
2021/03/16 05:05:00;;;;;;;1.23;1.13;;;9.20;74.70;;;;;;5001737;28;20422;-84
2021/03/16 05:07:45;;;;;;;1.48;1.20;;;9.20;74.70;;;;;;5018944;28;20612;-84
2021/03/16 05:10:29;;;;;;;2.80;1.33;;;9.20;74.70;;;;;;5015673;28;20040;-85
2021/03/16 05:13:14;;;;;;;1.73;1.17;;;9.20;74.70;;;;;;5011410;28;20161;-83
2021/03/16 05:16:00;;;;;;;2.20;1.17;;;9.20;74.70;;;;;;5018701;28;20288;-85
2021/03/16 05:18:45;;;;;;;1.27;1.10;;;9.20;74.70;;;;;;5001266;28;20442;-83
2021/03/16 05:21:30;;;;;;;2.78;1.25;;;9.20;74.70;;;;;;4980652;28;20045;-84
2021/03/16 05:24:14;;;;;;;3.58;1.48;;;9.20;74.70;;;;;;5002267;28;20145;-83
2021/03/16 05:26:59;;;;;;;2.92;1.40;;;9.20;74.70;;;;;;5001000;28;20096;-83
2021/03/16 05:29:43;;;;;;;2.65;1.48;;;9.20;74.70;;;;;;5018365;28;20033;-81
2021/03/16 05:32:27;;;;;;;2.67;1.37;;;9.20;74.70;;;;;;5014705;28;20168;-81
2021/03/16 05:35:12;;;;;;;2.63;1.10;;;9.20;74.70;;;;;;4987082;28;20045;-80
2021/03/16 05:37:57;;;;;;;3.30;1.60;;;9.20;74.70;;;;;;5012846;28;20056;-83
2021/03/16 05:40:42;;;;;;;2.88;1.38;;;9.20;74.80;;;;;;5010520;28;20394;-82
2021/03/16 05:43:27;;;;;;;2.22;1.30;;;9.20;74.80;;;;;;5014811;28;20056;-83
2021/03/16 05:46:12;;;;;;;2.38;1.10;;;9.10;74.70;;;;;;4997159;28;20040;-84
2021/03/16 05:49:01;;;;;;;1.67;1.10;;;9.10;74.70;;;;;;5004026;28;20080;-82
2021/03/16 05:51:47;;;;;;;4.38;1.70;;;9.10;74.70;;;;;;5004053;28;20045;-82
2021/03/16 05:54:32;;;;;;;2.85;1.27;;;9.20;74.80;;;;;;5021266;28;20446;-83
2021/03/16 05:57:17;;;;;;;3.00;1.23;;;9.10;74.80;;;;;;5014947;28;20115;-82
2021/03/16 06:00:03;;;;;;;2.08;1.30;;;9.10;74.70;;;;;;5003163;28;20092;-83
2021/03/16 06:02:49;;;;;;;2.70;1.30;;;9.10;74.80;;;;;;5000731;28;20037;-83
2021/03/16 06:05:33;;;;;;;;;;;9.10;74.80;;;;;;5001737;28;20052;-87
2021/03/16 06:08:17;;;;;;;2.65;1.30;;;9.10;74.80;;;;;;5005921;28;19959;-84
2021/03/16 06:11:06;;;;;;;3.95;1.27;;;9.10;74.60;;;;;;5002824;28;20041;-85
2021/03/16 06:13:56;;;;;;;1.67;1.30;;;9.10;74.80;;;;;;5019541;28;20390;-85
2021/03/16 06:16:40;;;;;;;2.47;1.40;;;9.10;74.80;;;;;;5000559;28;20128;-86
2021/03/16 06:19:26;;;;;;;2.63;1.40;;;9.10;74.80;;;;;;4986715;28;20548;-85
2021/03/16 06:22:19;;;;;;;3.25;1.30;;;9.10;74.80;;;;;;5000298;28;20057;-85
2021/03/16 06:25:05;;;;;;;1.27;1.15;;;9.10;74.90;;;;;;4999370;28;20060;-84
2021/03/16 06:28:05;;;;;;;4.60;1.40;;;9.10;74.90;;;;;;5014630;28;20398;-84
2021/03/16 06:30:49;;;;;;;4.03;1.35;;;9.10;74.90;;;;;;5004547;28;20096;-85
2021/03/16 06:33:34;;;;;;;3.40;1.45;;;9.10;74.90;;;;;;4986391;28;20088;-84
2021/03/16 06:36:24;;;;;;;4.20;1.30;;;9.10;74.90;;;;;;5013688;28;20080;-84
2021/03/16 06:39:20;;;;;;;4.13;1.20;;;9.10;74.90;;;;;;5003107;28;20045;-84
2021/03/16 06:42:04;;;;;;;2.92;1.40;;;9.10;74.90;;;;;;5015001;28;20440;-84
2021/03/16 06:45:05;;;;;;;3.93;1.30;;;9.10;74.90;;;;;;4995305;28;20049;-85
2021/03/16 06:47:50;;;;;;;3.63;1.40;;;9.10;75.00;;;;;;5008241;28;20112;-84
2021/03/16 06:50:34;;;;;;;3.33;1.48;;;9.10;74.90;;;;;;4996138;28;20053;-84
2021/03/16 06:53:21;;;;;;;3.63;1.50;;;9.10;74.90;;;;;;5006869;28;20084;-84
2021/03/16 06:56:06;;;;;;;2.22;1.30;;;9.10;74.90;;;;;;5029346;28;20431;-85
2021/03/16 06:58:50;;;;;;;4.28;1.50;;;9.10;74.90;;;;;;5008660;28;20040;-87
2021/03/16 07:01:35;;;;;;;2.95;1.70;;;9.10;75.00;;;;;;4999375;28;20045;-88
2021/03/16 07:04:24;;;;;;;2.80;1.33;;;9.10;75.00;;;;;;5014561;28;20092;-89
2021/03/16 07:07:10;;;;;;;3.65;1.48;;;9.10;74.90;;;;;;4994744;28;20458;-89
2021/03/16 07:09:55;;;;;;;2.28;1.40;;;9.20;75.00;;;;;;4999864;28;20092;-90
2021/03/16 07:12:41;;;;;;;3.80;1.40;;;9.10;74.90;;;;;;5016822;28;20558;-88
2021/03/16 07:15:27;;;;;;;1.80;1.30;;;9.20;75.00;;;;;;5007560;28;20509;-88
2021/03/16 07:18:12;;;;;;;1.88;1.30;;;9.20;75.00;;;;;;5011088;28;20040;-87
2021/03/16 07:20:58;;;;;;;1.75;1.27;;;9.20;75.00;;;;;;4986987;28;20036;-86
2021/03/16 07:23:48;;;;;;;3.03;1.40;;;9.20;75.00;;;;;;5000906;28;20029;-90
2021/03/16 07:26:34;;;;;;;2.38;1.35;;;9.20;75.00;;;;;;5000190;28;20056;-87
2021/03/16 07:29:19;;;;;;;2.95;1.23;;;9.20;75.00;;;;;;5015275;28;20044;-88
2021/03/16 07:32:04;;;;;;;3.33;1.55;;;9.20;75.00;;;;;;4999903;28;20103;-88
2021/03/16 07:34:50;;;;;;;2.15;1.35;;;9.20;75.00;;;;;;4996439;28;20049;-89
2021/03/16 07:37:35;;;;;;;;;;;9.20;75.00;;;;;;4998328;28;20041;-89
2021/03/16 07:40:20;;;;;;;1.17;1.08;;;9.20;75.00;;;;;;5000772;28;19919;-88
2021/03/16 07:43:09;;;;;;;1.67;1.27;;;9.20;74.80;;;;;;5007812;28;20430;-89
2021/03/16 07:45:53;;;;;;;2.28;1.35;;;9.20;75.00;;;;;;4999364;28;20041;-89
2021/03/16 07:48:51;;;;;;;1.90;1.25;;;9.20;75.00;;;;;;5014056;28;20076;-89
2021/03/16 07:51:36;;;;;;;2.25;1.23;;;9.20;75.10;;;;;;5018254;28;20125;-90
2021/03/16 07:54:21;;;;;;;3.03;1.57;;;9.30;75.10;;;;;;5002416;28;20049;-90
2021/03/16 07:57:06;;;;;;;3.20;1.58;;;9.30;75.10;;;;;;5000916;28;20296;-89
2021/03/16 08:00:28;;;;;;;1.88;1.33;;;9.30;75.10;;;;;;5000418;28;20041;-90
2021/03/16 08:03:22;;;;;;;3.58;1.83;;;9.30;75.20;;;;;;5002758;28;20044;-90
2021/03/16 08:06:07;;;;;;;3.13;1.58;;;9.30;75.10;;;;;;5000821;28;20193;-88
2021/03/16 08:08:52;;;;;;;2.97;1.40;;;9.30;75.10;;;;;;5003134;28;20092;-89
2021/03/16 08:11:42;;;;;;;2.50;1.20;;;9.40;75.10;;;;;;4985284;28;20908;-89
2021/03/16 08:14:30;;;;;;;2.42;1.50;;;9.40;75.10;;;;;;5014036;28;20065;-90
2021/03/16 08:17:32;;;;;;;4.78;1.60;;;9.40;75.10;;;;;;5012515;28;20040;-89
2021/03/16 08:20:26;;;;;;;2.97;1.40;;;9.40;75.20;;;;;;5010308;28;20060;-91
2021/03/16 08:23:12;;;;;;;3.33;1.40;;;9.50;75.20;;;;;;5001661;28;20037;-89
2021/03/16 08:25:57;;;;;;;1.70;1.30;;;9.50;75.10;;;;;;4999797;28;20037;-90
2021/03/16 08:28:47;;;;;;;1.98;1.20;;;9.40;75.00;;;;;;4999240;28;20049;-89
2021/03/16 08:31:34;;;;;;;2.78;1.30;;;9.50;75.20;;;;;;5017099;28;20037;-89
2021/03/16 08:34:21;;;;;;;3.40;1.48;;;9.50;75.10;;;;;;5022201;28;20509;-89
2021/03/16 08:37:05;;;;;;;2.67;1.83;;;9.60;75.20;;;;;;4994847;28;20109;-86
2021/03/16 08:39:51;;;;;;;2.40;1.70;;;9.60;75.10;;;;;;4995289;28;20045;-87
2021/03/16 08:42:35;;;;;;;3.08;1.38;;;9.60;75.00;;;;;;5012526;28;20275;-85
2021/03/16 08:45:31;;;;;;;5.75;1.90;;;9.60;75.10;;;;;;5002097;28;20048;-89
2021/03/16 08:48:25;;;;;;;1.80;1.40;;;9.60;75.00;;;;;;5013607;28;20552;-89
2021/03/16 08:51:11;;;;;;;2.50;1.20;;;9.70;75.10;;;;;;5007033;28;20033;-89
2021/03/16 08:53:55;;;;;;;2.75;1.40;;;9.70;75.00;;;;;;5002568;28;20513;-91
2021/03/16 08:56:40;;;;;;;3.03;1.60;;;9.70;75.00;;;;;;4975491;28;20542;-91
2021/03/16 08:59:24;;;;;;;2.45;1.38;;;9.80;75.10;;;;;;5002745;28;20040;-91
2021/03/16 09:02:21;;;;;;;2.78;1.20;;;9.80;75.00;;;;;;4997637;28;20089;-91
2021/03/16 09:05:16;;;;;;;2.90;1.33;;;9.80;75.10;;;;;;5016734;28;20053;-91
2021/03/16 09:08:01;;;;;;;2.97;1.60;;;9.90;75.00;;;;;;5016951;28;20125;-91
2021/03/16 09:10:48;;;;;;;3.92;1.80;;;9.90;75.00;;;;;;5001999;28;20075;-90
2021/03/16 09:13:31;;;;;;;2.45;1.40;;;9.90;75.00;;;;;;5016936;28;20165;-90
2021/03/16 09:16:24;;;;;;;2.25;1.35;;;9.90;74.90;;;;;;5015893;28;20120;-91
2021/03/16 09:19:13;;;;;;;2.53;1.48;;;9.90;75.00;;;;;;4984030;28;20659;-89
2021/03/16 09:22:01;;;;;;;3.17;1.50;;;10.00;75.00;;;;;;5016608;28;20505;-91
2021/03/16 09:24:45;;;;;;;3.25;1.42;;;10.00;74.90;;;;;;5001753;28;20092;-91
2021/03/16 09:27:30;;;;;;;1.83;1.27;;;10.00;74.80;;;;;;5015960;28;20111;-90
2021/03/16 09:30:16;;;;;;;5.25;1.58;;;10.10;74.90;;;;;;4988623;28;20056;-90
2021/03/16 09:33:01;;;;;;;2.60;1.20;;;10.10;74.80;;;;;;5000526;28;20045;-90
2021/03/16 09:35:57;;;;;;;2.80;1.38;;;10.10;74.80;;;;;;4996116;28;20065;-90
2021/03/16 09:38:29;;;;;;;3.13;1.63;;;10.20;74.90;;;;;;4999094;28;20586;-91
2021/03/16 09:41:15;;;;;;;3.25;1.80;;;10.20;74.70;;;;;;5003918;28;20038;-90
2021/03/16 09:43:41;;;;;;;2.67;1.20;;;10.30;74.70;;;;;;4996568;28;20030;-91
2021/03/16 09:46:12;;;;;;;1.65;1.20;;;10.30;74.70;;;;;;4995714;28;20132;-89
2021/03/16 09:48:40;;;;;;;2.38;1.25;;;10.30;74.70;;;;;;4982494;28;20459;-89
2021/03/16 09:51:20;;;;;;;2.42;1.13;;;10.40;74.70;;;;;;4999026;28;20049;-89
2021/03/16 09:53:55;;;;;;;4.60;1.65;;;10.40;74.70;;;;;;4982485;28;20034;-91
2021/03/16 09:56:30;;;;;;;;;;;10.50;74.60;;;;;;4999290;28;20125;-91
2021/03/16 09:58:58;;;;;;;4.05;1.60;;;10.50;74.50;;;;;;4997832;28;19967;-91
2021/03/16 10:01:25;;;;;;;2.90;1.40;;;10.50;74.30;;;;;;4997491;28;20029;-90
2021/03/16 10:03:54;;;;;;;3.08;1.20;;;10.50;74.40;;;;;;4996135;28;20034;-90
2021/03/16 10:06:38;;;;;;;4.57;1.52;;;10.50;74.40;;;;;;5016024;28;20042;-91
2021/03/16 10:09:26;;;;;;;5.25;1.55;;;10.60;74.50;;;;;;4998492;28;20481;-91
2021/03/16 10:11:53;;;;;;;1.50;1.13;;;10.60;74.50;;;;;;4998610;28;20037;-91
2021/03/16 10:14:30;;;;;;;2.08;1.30;;;10.70;74.50;;;;;;4982166;28;20030;-90
2021/03/16 10:16:57;;;;;;;3.00;1.40;;;10.70;74.50;;;;;;4998481;28;20025;-90
2021/03/16 10:19:24;;;;;;;2.40;1.30;;;10.70;74.40;;;;;;4997845;28;20462;-90
2021/03/16 10:21:50;;;;;;;2.83;1.45;;;10.80;74.40;;;;;;4971895;28;20112;-90
2021/03/16 10:24:24;;;;;;;2.80;1.30;;;10.80;74.40;;;;;;5000730;28;20546;-90
2021/03/16 10:26:56;;;;;;;2.77;1.50;;;10.80;74.40;;;;;;5000939;28;20109;-89
2021/03/16 10:29:23;;;;;;;1.75;1.10;;;10.90;74.40;;;;;;5001468;28;20033;-90
2021/03/16 10:31:48;;;;;;;2.95;1.42;;;10.90;74.30;;;;;;4997858;28;20092;-90
2021/03/16 10:34:14;;;;;;;2.05;1.20;;;10.90;74.30;;;;;;4982803;28;20809;-90
2021/03/16 10:36:40;;;;;;;2.00;1.00;;;11.00;74.30;;;;;;4998055;28;20385;-89
2021/03/16 10:39:06;;;;;;;3.47;1.35;;;11.00;74.30;;;;;;4997497;28;20091;-90
2021/03/16 10:41:32;;;;;;;2.35;1.10;;;11.00;74.30;;;;;;4981433;28;20029;-90
2021/03/16 10:43:58;;;;;;;3.28;1.35;;;11.10;74.30;;;;;;4980937;28;20026;-90
2021/03/16 10:46:24;;;;;;;4.60;1.30;;;11.10;74.20;;;;;;4994703;28;20026;-89
2021/03/16 10:48:51;;;;;;;3.20;1.45;;;11.10;74.20;;;;;;5008393;28;20018;-90
2021/03/16 10:51:19;;;;;;;1.45;1.10;;;11.20;74.20;;;;;;5014302;28;20025;-90
2021/03/16 10:53:44;;;;;;;2.53;1.30;;;11.20;74.20;;;;;;4981718;28;20116;-90
2021/03/16 10:56:10;;;;;;;2.38;1.10;;;11.20;74.20;;;;;;4997656;28;20114;-89
2021/03/16 10:58:36;;;;;;;2.45;1.20;;;11.30;74.20;;;;;;4998066;28;20029;-90
2021/03/16 11:01:03;;;;;;;2.20;1.02;;;11.30;74.10;;;;;;5014727;28;20018;-89
2021/03/16 11:03:30;;;;;;;1.70;1.27;;;11.30;74.10;;;;;;5016323;28;20017;-89
2021/03/16 11:05:55;;;;;;;2.17;1.20;;;11.30;74.10;;;;;;5010138;28;20042;-84
2021/03/16 11:08:21;;;;;;;1.65;1.10;;;11.40;74.10;;;;;;5006487;28;20045;-89
2021/03/16 11:10:47;;;;;;;2.47;1.05;;;11.40;74.60;;;;;;5007219;28;20152;-89
2021/03/16 11:13:13;;;;;;;2.25;1.15;;;11.50;74.00;;;;;;4977764;28;20038;-88
2021/03/16 11:15:39;;;;;;;2.03;1.17;;;11.50;74.00;;;;;;5018561;28;20040;-90
2021/03/16 11:18:05;;;;;;;2.35;1.10;;;11.60;74.00;;;;;;4988881;28;20018;-88
2021/03/16 11:20:31;;;;;;;2.50;1.27;;;11.60;74.00;;;;;;4994402;28;20109;-87
2021/03/16 11:22:57;;;;;;;2.90;1.20;;;11.60;73.90;;;;;;4995908;28;20438;-86
2021/03/16 11:25:22;;;;;;;3.15;1.42;;;11.70;73.90;;;;;;4997111;28;20034;-88
2021/03/16 11:27:48;;;;;;;3.08;1.13;;;11.70;73.90;;;;;;4997462;28;20041;-88
2021/03/16 11:30:14;;;;;;;1.55;1.00;;;11.70;73.80;;;;;;4980818;28;20038;-88
2021/03/16 11:32:40;;;;;;;3.47;1.20;;;11.80;73.90;;;;;;5012679;28;20026;-89
2021/03/16 11:35:25;;;;;;;2.17;1.10;;;11.80;73.80;;;;;;4987580;28;20162;-88
2021/03/16 11:38:11;;;;;;;2.53;1.20;;;11.80;73.70;;;;;;5017031;28;20558;-87
2021/03/16 11:40:56;;;;;;;3.00;1.30;;;11.90;73.70;;;;;;5001499;28;20570;-88
2021/03/16 11:43:40;;;;;;;4.75;1.52;;;11.90;73.60;;;;;;4992613;28;20068;-88
2021/03/16 11:46:25;;;;;;;2.63;1.47;;;12.00;73.70;;;;;;4993725;28;20046;-87
2021/03/16 11:49:09;;;;;;;4.22;1.23;;;12.00;73.70;;;;;;5014578;28;20144;-85
2021/03/16 11:51:54;;;;;;;1.90;1.08;;;12.00;73.60;;;;;;5016767;28;20102;-85
2021/03/16 11:54:38;;;;;;;3.85;1.10;;;12.00;73.60;;;;;;5007872;28;20048;-90
2021/03/16 11:57:23;;;;;;;3.30;1.23;;;12.10;73.60;;;;;;4987129;28;20072;-88
2021/03/16 12:00:07;;;;;;;2.30;1.20;;;12.10;73.50;;;;;;5006300;28;20041;-87
2021/03/16 12:02:51;;;;;;;1.52;0.98;;;12.20;73.50;;;;;;5009932;28;20040;-87
2021/03/16 12:05:36;;;;;;;2.05;0.95;;;12.20;73.40;;;;;;5013645;28;20057;-87
2021/03/16 12:08:21;;;;;;;3.17;1.30;;;12.20;73.40;;;;;;5006819;28;20061;-87
2021/03/16 12:11:05;;;;;;;2.10;1.10;;;12.20;73.30;;;;;;5002849;28;20040;-87
2021/03/16 12:13:49;;;;;;;2.25;1.02;;;12.30;73.30;;;;;;4991133;28;20057;-85
2021/03/16 12:16:34;;;;;;;2.67;1.20;;;12.30;73.30;;;;;;5007304;28;20044;-85
2021/03/16 12:19:18;;;;;;;1.90;1.05;;;12.30;73.20;;;;;;4992838;28;20084;-85
2021/03/16 12:22:03;;;;;;;1.83;1.15;;;12.40;73.20;;;;;;4995222;28;20052;-87
2021/03/16 12:24:48;;;;;;;2.25;1.35;;;12.40;73.30;;;;;;5013436;28;20045;-87
2021/03/16 12:27:33;;;;;;;2.85;1.25;;;12.40;73.20;;;;;;4993007;28;20045;-85
2021/03/16 12:30:19;;;;;;;3.85;1.40;;;12.40;73.20;;;;;;5005372;28;20044;-87
2021/03/16 12:33:04;;;;;;;1.60;1.30;;;12.50;73.30;;;;;;5013233;28;20052;-90
2021/03/16 12:35:51;;;;;;;1.48;1.10;;;12.50;73.20;;;;;;5014994;28;20036;-90
2021/03/16 12:38:35;;;;;;;1.75;1.13;;;12.50;73.20;;;;;;5015164;28;20045;-79
2021/03/16 12:41:19;;;;;;;2.77;1.03;;;12.50;73.20;;;;;;4993834;28;20032;-85
2021/03/16 12:44:04;;;;;;;7.25;1.38;;;12.50;73.20;;;;;;5012324;28;20068;-84
2021/03/16 12:46:48;;;;;;;2.35;1.20;;;12.60;73.20;;;;;;4998770;28;20049;-86
2021/03/16 12:49:33;;;;;;;1.42;1.05;;;12.60;73.80;;;;;;4992569;28;20045;-85
2021/03/16 12:52:17;;;;;;;2.22;1.23;;;12.70;73.20;;;;;;4998568;28;20501;-85
2021/03/16 12:55:02;;;;;;;3.65;1.20;;;12.70;73.10;;;;;;4998590;28;20041;-85
2021/03/16 12:57:47;;;;;;;2.40;1.02;;;12.70;73.10;;;;;;4984794;28;20045;-87
2021/03/16 13:00:32;;;;;;;1.20;1.10;;;12.70;73.20;;;;;;5013052;28;20108;-85
2021/03/16 13:03:16;;;;;;;1.40;1.02;;;12.70;73.10;;;;;;5017921;28;20045;-85
2021/03/16 13:06:00;;;;;;;2.58;1.23;;;12.70;73.10;;;;;;4998717;28;20128;-84
2021/03/16 13:08:46;;;;;;;2.22;1.20;;;12.80;73.20;;;;;;4986355;28;20123;-84
2021/03/16 13:11:31;;;;;;;1.75;1.08;;;12.80;73.20;;;;;;4986598;28;20046;-83
2021/03/16 13:14:15;;;;;;;1.83;1.17;;;12.80;73.20;;;;;;4967358;28;20045;-84
2021/03/16 13:17:00;;;;;;;2.20;1.23;;;12.80;73.20;;;;;;4989167;28;20093;-83
2021/03/16 13:19:44;;;;;;;1.77;1.15;;;12.80;73.20;;;;;;4991973;28;20073;-83
2021/03/16 13:22:28;;;;;;;4.07;1.35;;;12.90;73.30;;;;;;4980389;28;20041;-83
2021/03/16 13:25:14;;;;;;;4.47;1.30;;;12.90;73.30;;;;;;4978999;28;20423;-83
2021/03/16 13:28:02;;;;;;;1.30;1.20;;;12.90;73.30;;;;;;4981828;28;20049;-83
2021/03/16 13:30:46;;;;;;;1.65;1.17;;;12.90;73.30;;;;;;4984088;28;20084;-84
2021/03/16 13:33:30;;;;;;;1.93;1.30;;;12.90;73.30;;;;;;4981665;28;20088;-84
2021/03/16 13:36:15;;;;;;;2.25;1.30;;;12.90;73.30;;;;;;4991394;28;20277;-83
2021/03/16 13:38:59;;;;;;;2.13;1.40;;;12.90;73.30;;;;;;4996453;28;20442;-84
2021/03/16 13:41:43;;;;;;;2.22;1.30;;;12.90;73.30;;;;;;4980642;28;20088;-85
2021/03/16 13:44:27;;;;;;;3.30;1.47;;;13.00;73.30;;;;;;4991053;28;20054;-85
2021/03/16 13:47:12;;;;;;;1.63;1.20;;;13.00;73.30;;;;;;4974506;28;20396;-86
2021/03/16 13:49:56;;;;;;;2.30;1.23;;;13.00;73.30;;;;;;4985404;28;20117;-85
2021/03/16 13:52:41;;;;;;;3.33;1.37;;;13.00;73.30;;;;;;4981564;28;20497;-85
2021/03/16 13:55:25;;;;;;;2.50;1.20;;;13.00;73.30;;;;;;4975653;28;20062;-85
2021/03/16 13:58:10;;;;;;;2.72;1.40;;;13.00;73.30;;;;;;4978552;28;20300;-84
2021/03/16 14:00:55;;;;;;;1.30;1.20;;;13.00;73.40;;;;;;4977390;28;20364;-85
2021/03/16 14:03:39;;;;;;;1.33;1.20;;;13.00;73.30;;;;;;4975368;28;20077;-85
2021/03/16 14:06:23;;;;;;;2.15;1.20;;;13.00;73.40;;;;;;4994469;28;21790;-85